Latest Coastal Weather Observations for Swanbourne

IDW60701

Issued at 5:53 pm WST Wednesday 24 May 2017 (issued every 10 minutes, with the page automatically refreshed every 10 minutes)

About coastal observations | Map of coastal stations | Coastal observations for WA | Marine services | Other Formats
Station Details ID: 009215 Name: SWANBOURNE Lat: -31.96 Lon: 115.76 Height: 40.96 m
Data from the previous 72 hours. | See also: Recent months at Swanbourne
Date/Time
WST
Temp
°C
Wind Pressure Rain since
9am
mm
Weather Cloud Vis
km
Sea
Height
m
Swell
Dir  Spd
kts
Gust
kts
hPa Trend Height
m
Period
s
Dir
24/05:30pm 17.3 SSW 4 5 - - 0.0 - - - - - - -
24/05:00pm 18.0 SSW 3 4 - - 0.0 - - - - - - -
24/04:30pm 19.0 WSW 2 4 - - 0.0 - - - - - - -
24/04:00pm 20.6 NW 3 5 - - 0.0 - - - - - - -
24/03:30pm 20.5 NW 4 6 - - 0.0 - - - - - - -
24/03:00pm 20.2 NNW 5 7 - - 0.0 - - - - - - -
24/02:30pm 20.3 NW 4 6 - - 0.0 - - - - - - -
24/02:00pm 20.3 NW 5 7 - - 0.0 - - - - - - -
24/01:30pm 20.5 WNW 5 8 - - 0.0 - - - - - - -
24/01:00pm 20.3 NW 4 6 - - 0.0 - - - - - - -
24/12:30pm 19.2 WNW 5 8 - - 0.0 - - - - - - -
24/12:00pm 20.1 NW 4 7 - - 0.0 - - - - - - -
24/11:30am 19.4 NW 4 6 - - 0.0 - - - - - - -
24/11:00am 18.0 NW 5 7 - - 0.0 - - - - - - -
24/10:30am 18.6 NW 4 7 - - 0.0 - - - - - - -
24/10:00am 18.4 NNW 4 6 - - 0.0 - - - - - - -
24/09:30am 17.6 NNW 5 8 - - 0.0 - - - - - - -
24/09:00am 17.0 N 4 5 - - 2.8 - - - - - - -
24/08:30am 16.1 NE 2 3 - - 2.8 - - - - - - -
24/08:00am 14.8 NE 3 4 - - 2.8 - - - - - - -
24/07:30am 13.8 NE 4 5 - - 2.8 - - - - - - -
24/07:00am 14.0 N 2 3 - - 2.8 - - - - - - -
24/06:30am 14.4 NE 3 3 - - 2.8 - - - - - - -
24/06:00am 15.0 NE 4 4 - - 2.8 - - - - - - -
24/05:30am 15.2 N 2 4 - - 2.8 - - - - - - -
24/05:00am 15.9 NE 2 4 - - 2.8 - - - - - - -
24/04:30am 16.5 WSW 6 10 - - 2.8 - - - - - - -
24/04:00am 16.6 W 5 8 - - 2.8 - - - - - - -
24/03:30am 16.3 WNW 6 9 - - 2.8 - - - - - - -
24/03:00am 16.0 W 7 10 - - 2.8 - - - - - - -
24/02:30am 15.8 W 4 7 - - 2.8 - - - - - - -
24/02:00am 15.2 NNW 2 4 - - 2.8 - - - - - - -
24/01:30am 15.0 N 4 6 - - 2.8 - - - - - - -
24/01:00am 15.2 N 5 7 - - 2.8 - - - - - - -
24/12:30am 15.2 N 4 5 - - 2.8 - - - - - - -
24/12:00am 15.2 NNE 4 5 - - 2.8 - - - - - - -
 
Date/Time
WST
Temp
°C
Wind Pressure Rain since
9am
mm
Weather Cloud Vis
km
Sea
Height
m
Swell
Dir  Spd
kts
Gust
kts
hPa Trend Height
m
Period
s
Dir
23/11:30pm 15.1 NNE 3 6 - - 2.8 - - - - - - -
23/11:00pm 15.1 ENE 4 5 - - 2.8 - - - - - - -
23/10:30pm 15.3 NNE 3 3 - - 2.8 - - - - - - -
23/10:00pm 15.4 ENE 3 4 - - 2.8 - - - - - - -
23/09:30pm 15.6 NE 2 4 - - 2.8 - - - - - - -
23/09:00pm 15.5 NNE 3 5 - - 2.6 - - - - - - -
23/08:30pm 15.6 NNW 2 3 - - 2.6 - - - - - - -
23/08:00pm 15.8 N 2 3 - - 2.6 - - - - - - -
23/07:30pm 15.9 N 4 6 - - 2.6 - - - - - - -
23/07:00pm 15.8 NE 3 3 - - 2.6 - - - - - - -
23/06:30pm 16.0 NNE 3 3 - - 2.6 - - - - - - -
23/06:00pm 16.0 NE 3 3 - - 2.6 Recent precip. - - - - - -
23/05:30pm 16.3 ENE 2 2 - - 2.6 - - - - - - -
23/05:00pm 16.6 NNW 2 4 - - 2.4 - - - - - - -
23/04:30pm 16.8 CALM 0 0 - - 2.2 - - - - - - -
23/04:00pm 16.7 N 3 5 - - 2.2 - - - - - - -
23/03:30pm 17.3 NW 5 10 - - 0.8 - - - - - - -
23/03:00pm 17.2 N 3 5 - - 0.8 - - - - - - -
23/02:30pm 17.1 NNW 5 6 - - 0.8 - - - - - - -
23/02:00pm 17.5 NNW 2 3 - - 0.8 - - - - - - -
23/01:30pm 16.3 NW 4 7 - - 0.8 - - - - - - -
23/01:00pm 17.1 N 4 7 - - 0.8 - - - - - - -
23/12:30pm 16.9 N 3 5 - - 0.8 - - - - - - -
23/12:00pm 16.9 ENE 4 6 - - 0.8 Recent precip. - - - - - -
23/11:30am 16.3 N 2 4 - - 0.4 - - - - - - -
23/11:00am 16.7 NE 3 5 - - 0.4 - - - - - - -
23/10:30am 16.2 ENE 3 5 - - 0.4 - - - - - - -
23/10:00am 15.7 NE 2 4 - - 0.2 - - - - - - -
23/09:30am 15.2 ENE 3 5 - - 0.2 - - - - - - -
23/09:00am 14.9 ENE 2 4 - - 4.4 - - - - - - -
23/08:30am 14.4 NE 4 6 - - 4.4 - - - - - - -
23/08:00am 14.1 ENE 3 5 - - 4.4 - - - - - - -
23/07:30am 14.0 NE 4 5 - - 4.2 - - - - - - -
23/07:00am 13.8 NNE 4 6 - - 4.2 - - - - - - -
23/06:30am 14.0 NE 4 6 - - 4.2 - - - - - - -
23/06:00am 13.5 ENE 3 5 - - 2.2 Recent precip. - - - - - -
23/05:30am 13.5 NE 4 6 - - 2.2 - - - - - - -
23/05:00am 13.4 NE 4 5 - - 1.8 - - - - - - -
23/04:30am 13.4 NE 4 6 - - 1.4 - - - - - - -
23/04:00am 13.3 ENE 4 5 - - 1.4 - - - - - - -
23/03:30am 13.5 NE 4 5 - - 1.4 - - - - - - -
23/03:00am 13.6 NE 4 5 - - 0.8 Rain - - - - - -
23/02:30am 13.4 ENE 5 7 - - 0.6 - - - - - - -
23/02:00am 13.5 ENE 5 7 - - 0.6 - - - - - - -
23/01:30am 13.6 ENE 5 7 - - 0.6 - - - - - - -
23/01:00am 13.8 NE 4 6 - - 0.6 - - - - - - -
23/12:30am 13.9 ENE 4 6 - - 0.6 - - - - - - -
23/12:00am 14.3 E 5 7 - - 0.6 - - - - - - -
 
Date/Time
WST
Temp
°C
Wind Pressure Rain since
9am
mm
Weather Cloud Vis
km
Sea
Height
m
Swell
Dir  Spd
kts
Gust
kts
hPa Trend Height
m
Period
s
Dir
22/11:30pm 14.9 ESE 6 9 - - 0.6 - - - - - - -
22/11:00pm 15.0 WNW 2 6 - - 0.6 - - - - - - -
22/10:30pm 15.3 W 3 5 - - 0.6 - - - - - - -
22/10:00pm 16.0 WSW 12 16 - - 0.4 - - - - - - -
22/09:30pm 15.7 WSW 12 18 - - 0.4 - - - - - - -
22/09:00pm 15.3 WNW 4 11 - - 0.2 Rain - - - - - -
22/08:30pm 16.0 W 11 15 - - 0.0 - - - - - - -
22/08:00pm 17.2 WSW 7 9 - - 0.0 - - - - - - -
22/07:30pm 17.2 W 7 9 - - 0.0 - - - - - - -
22/07:00pm 16.5 W 6 9 - - 0.0 - - - - - - -
22/06:30pm 16.6 W 10 13 - - 0.0 - - - - - - -
22/06:00pm 16.7 W 7 10 - - 0.0 - - - - - - -
22/05:30pm 16.8 WSW 7 10 - - 0.0 - - - - - - -
22/05:00pm 16.9 W 6 9 - - 0.0 - - - - - - -
22/04:30pm 18.4 WSW 4 5 - - 0.0 - - - - - - -
22/04:00pm 18.2 WNW 3 6 - - 0.0 - - - - - - -
22/03:30pm 17.9 WNW 3 4 - - 0.0 - - - - - - -
22/03:00pm 17.7 WSW 6 13 - - 0.0 - - - - - - -
22/02:30pm 18.0 WSW 3 7 - - 0.0 - - - - - - -
22/02:00pm 17.2 NW 3 5 - - 0.0 - - - - - - -
22/01:30pm 18.1 NW 7 10 - - 0.0 - - - - - - -
22/01:00pm 18.0 NW 5 7 - - 0.0 - - - - - - -
22/12:30pm 17.2 NNW 3 6 - - 0.0 - - - - - - -
22/12:00pm 17.5 NE 5 8 - - 0.0 - - - - - - -
22/11:30am 15.9 ENE 6 9 - - 0.0 - - - - - - -
22/11:00am 14.8 ENE 5 8 - - 0.0 - - - - - - -
22/10:30am 13.8 NE 5 8 - - 0.0 - - - - - - -
22/10:00am 13.1 NE 4 7 - - 0.0 - - - - - - -
22/09:30am 12.7 NE 4 7 - - 0.0 - - - - - - -
22/09:00am 11.6 NE 5 7 - - 10.2 - - - - - - -
22/08:30am 11.3 ENE 4 6 - - 10.2 - - - - - - -
22/08:00am 10.5 ENE 5 7 - - 10.2 - - - - - - -
22/07:30am 10.1 ENE 4 5 - - 10.2 - - - - - - -
22/07:00am 10.1 NE 5 10 - - 10.2 - - - - - - -
22/06:30am 9.6 ENE 5 8 - - 9.8 - - - - - - -
22/06:00am 9.3 ENE 5 7 - - 9.8 - - - - - - -
22/05:30am 9.3 E 5 8 - - 9.8 - - - - - - -
22/05:00am 9.6 E 5 8 - - 9.8 - - - - - - -
22/04:30am 9.7 ENE 6 9 - - 9.8 - - - - - - -
22/04:00am 9.9 ENE 5 8 - - 9.8 - - - - - - -
22/03:30am 10.1 E 5 9 - - 9.8 - - - - - - -
22/03:00am 10.0 NE 5 7 - - 9.8 - - - - - - -
22/02:30am 10.1 ENE 5 8 - - 9.8 - - - - - - -
22/02:00am 10.2 ENE 5 7 - - 9.8 - - - - - - -
22/01:30am 10.1 ENE 6 8 - - 9.8 - - - - - - -
22/01:00am 10.2 ENE 5 7 - - 9.6 - - - - - - -
22/12:30am 10.3 E 5 7 - - 9.6 - - - - - - -
22/12:00am 10.6 ENE 6 9 - - 9.6 - - - - - - -
 
Date/Time
WST
Temp
°C
Wind Pressure Rain since
9am
mm
Weather Cloud Vis
km
Sea
Height
m
Swell
Dir  Spd
kts
Gust
kts
hPa Trend Height
m
Period
s
Dir
21/11:30pm 10.6 E 6 8 - - 9.6 - - - - - - -
21/11:00pm 10.8 E 5 7 - - 9.6 - - - - - - -
21/10:30pm 10.9 E 6 8 - - 9.6 - - - - - - -
21/10:00pm 11.1 ENE 5 6 - - 9.6 - - - - - - -
21/09:30pm 12.0 S 4 8 - - 9.6 - - - - - - -
21/09:00pm 13.0 SE 4 10 - - 7.8 - - - - - - -
21/08:30pm 14.0 SSW 9 15 - - 7.8 - - - - - - -
21/08:00pm 13.2 SSW 13 20 - - 7.8 - - - - - - -
21/07:48pm 13.7 SW 15 25 - - 7.8 - - - - - - -
21/07:30pm 12.7 SSW 9 15 - - 7.8 - - - - - - -
21/07:04pm 12.5 SSW 15 26 - - 7.8 - - - - - - -
21/07:00pm 12.9 SW 16 26 - - 7.6 - - - - - - -
21/06:54pm 13.1 SSW 11 25 - - 7.6 - - - - - - -
21/06:30pm 12.8 SW 7 11 - - 6.4 - - - - - - -
21/06:00pm 13.4 SSW 11 17 - - 6.0 Recent precip. - - - - - -

Other Formats:

Comma delimited format used in spreadsheet applications
http://www.bom.gov.au/fwo/IDW60701/IDW60701.94614.axf

JavaScript Object Notation format (JSON) in row-major order
http://www.bom.gov.au/fwo/IDW60701/IDW60701.94614.json